sensor_id;sensor_type;location;lat;lon;timestamp;temperature;humidity
20479;DHT22;10398;52.490;13.434;2023-06-14T00:01:47;18.00;91.70
20479;DHT22;10398;52.490;13.434;2023-06-14T00:04:14;18.10;91.60
20479;DHT22;10398;52.490;13.434;2023-06-14T00:06:42;18.10;91.80
20479;DHT22;10398;52.490;13.434;2023-06-14T00:09:13;18.00;92.00
20479;DHT22;10398;52.490;13.434;2023-06-14T00:11:41;17.90;92.10
20479;DHT22;10398;52.490;13.434;2023-06-14T00:14:07;18.00;92.10
20479;DHT22;10398;52.490;13.434;2023-06-14T00:16:32;17.90;92.30
20479;DHT22;10398;52.490;13.434;2023-06-14T00:18:59;17.90;92.40
20479;DHT22;10398;52.490;13.434;2023-06-14T00:21:24;17.90;92.50
20479;DHT22;10398;52.490;13.434;2023-06-14T00:23:50;17.70;92.90
20479;DHT22;10398;52.490;13.434;2023-06-14T00:26:16;17.70;93.00
20479;DHT22;10398;52.490;13.434;2023-06-14T00:28:41;17.80;93.10
20479;DHT22;10398;52.490;13.434;2023-06-14T00:31:07;17.70;93.40
20479;DHT22;10398;52.490;13.434;2023-06-14T00:33:33;17.60;93.70
20479;DHT22;10398;52.490;13.434;2023-06-14T00:35:59;17.60;93.90
20479;DHT22;10398;52.490;13.434;2023-06-14T00:38:24;17.50;94.10
20479;DHT22;10398;52.490;13.434;2023-06-14T00:40:50;17.50;94.30
20479;DHT22;10398;52.490;13.434;2023-06-14T00:43:16;17.50;94.40
20479;DHT22;10398;52.490;13.434;2023-06-14T00:45:41;17.60;94.40
20479;DHT22;10398;52.490;13.434;2023-06-14T00:48:08;17.60;94.60
20479;DHT22;10398;52.490;13.434;2023-06-14T00:50:34;17.60;94.60
20479;DHT22;10398;52.490;13.434;2023-06-14T00:53:01;17.60;94.70
20479;DHT22;10398;52.490;13.434;2023-06-14T00:55:27;17.60;95.10
20479;DHT22;10398;52.490;13.434;2023-06-14T00:57:55;17.40;95.30
20479;DHT22;10398;52.490;13.434;2023-06-14T01:00:21;17.50;95.30
20479;DHT22;10398;52.490;13.434;2023-06-14T01:02:47;17.50;95.50
20479;DHT22;10398;52.490;13.434;2023-06-14T01:05:14;17.50;95.60
20479;DHT22;10398;52.490;13.434;2023-06-14T01:10:25;17.50;95.90
20479;DHT22;10398;52.490;13.434;2023-06-14T01:13:11;17.50;96.20
20479;DHT22;10398;52.490;13.434;2023-06-14T01:15:39;17.40;96.40
20479;DHT22;10398;52.490;13.434;2023-06-14T01:18:06;17.40;96.70
20479;DHT22;10398;52.490;13.434;2023-06-14T01:20:35;17.30;97.00
20479;DHT22;10398;52.490;13.434;2023-06-14T01:23:03;17.30;97.10
20479;DHT22;10398;52.490;13.434;2023-06-14T01:25:28;17.30;97.30
20479;DHT22;10398;52.490;13.434;2023-06-14T01:28:03;17.40;97.30
20479;DHT22;10398;52.490;13.434;2023-06-14T01:30:31;17.30;97.40
20479;DHT22;10398;52.490;13.434;2023-06-14T01:32:58;17.40;97.50
20479;DHT22;10398;52.490;13.434;2023-06-14T01:35:24;17.40;97.50
20479;DHT22;10398;52.490;13.434;2023-06-14T01:37:51;17.40;97.60
20479;DHT22;10398;52.490;13.434;2023-06-14T01:40:18;17.30;97.90
20479;DHT22;10398;52.490;13.434;2023-06-14T01:42:46;17.10;98.20
20479;DHT22;10398;52.490;13.434;2023-06-14T01:45:13;17.10;98.50
20479;DHT22;10398;52.490;13.434;2023-06-14T01:47:39;17.10;98.60
20479;DHT22;10398;52.490;13.434;2023-06-14T01:50:06;17.10;98.90
20479;DHT22;10398;52.490;13.434;2023-06-14T01:52:31;17.00;99.10
20479;DHT22;10398;52.490;13.434;2023-06-14T01:54:57;17.00;99.30
20479;DHT22;10398;52.490;13.434;2023-06-14T01:57:25;17.00;99.40
20479;DHT22;10398;52.490;13.434;2023-06-14T01:59:52;17.00;99.60
20479;DHT22;10398;52.490;13.434;2023-06-14T02:02:18;17.10;99.60
20479;DHT22;10398;52.490;13.434;2023-06-14T02:04:44;17.20;99.40
20479;DHT22;10398;52.490;13.434;2023-06-14T02:07:13;17.10;99.70
20479;DHT22;10398;52.490;13.434;2023-06-14T02:09:39;17.10;99.80
20479;DHT22;10398;52.490;13.434;2023-06-14T02:12:05;17.10;99.90
20479;DHT22;10398;52.490;13.434;2023-06-14T02:14:31;17.00;99.90
20479;DHT22;10398;52.490;13.434;2023-06-14T02:16:57;17.10;99.90
20479;DHT22;10398;52.490;13.434;2023-06-14T02:19:22;17.10;99.90
20479;DHT22;10398;52.490;13.434;2023-06-14T02:21:48;17.20;99.90
20479;DHT22;10398;52.490;13.434;2023-06-14T02:24:14;17.20;99.90
20479;DHT22;10398;52.490;13.434;2023-06-14T02:26:39;17.20;99.90
20479;DHT22;10398;52.490;13.434;2023-06-14T02:29:08;17.20;99.90
20479;DHT22;10398;52.490;13.434;2023-06-14T02:31:36;17.20;99.90
20479;DHT22;10398;52.490;13.434;2023-06-14T02:34:02;17.20;99.90
20479;DHT22;10398;52.490;13.434;2023-06-14T02:36:27;17.20;99.90
20479;DHT22;10398;52.490;13.434;2023-06-14T02:38:56;17.20;99.90
20479;DHT22;10398;52.490;13.434;2023-06-14T02:41:23;17.20;99.90
20479;DHT22;10398;52.490;13.434;2023-06-14T02:43:49;17.20;99.90
20479;DHT22;10398;52.490;13.434;2023-06-14T02:46:15;17.20;99.90
20479;DHT22;10398;52.490;13.434;2023-06-14T02:48:41;17.10;99.90
20479;DHT22;10398;52.490;13.434;2023-06-14T02:51:06;17.10;99.90
20479;DHT22;10398;52.490;13.434;2023-06-14T02:53:33;17.20;99.90
20479;DHT22;10398;52.490;13.434;2023-06-14T02:55:59;17.10;99.90
20479;DHT22;10398;52.490;13.434;2023-06-14T02:58:26;17.20;99.90
20479;DHT22;10398;52.490;13.434;2023-06-14T03:00:52;17.30;99.90
20479;DHT22;10398;52.490;13.434;2023-06-14T03:03:20;17.40;99.90
20479;DHT22;10398;52.490;13.434;2023-06-14T03:05:48;17.30;99.90
20479;DHT22;10398;52.490;13.434;2023-06-14T03:08:15;17.30;99.90
20479;DHT22;10398;52.490;13.434;2023-06-14T03:10:48;17.30;99.90
20479;DHT22;10398;52.490;13.434;2023-06-14T03:13:15;17.20;99.90
20479;DHT22;10398;52.490;13.434;2023-06-14T03:15:42;17.10;99.90
20479;DHT22;10398;52.490;13.434;2023-06-14T03:18:08;17.00;99.90
20479;DHT22;10398;52.490;13.434;2023-06-14T03:20:35;17.00;99.90
20479;DHT22;10398;52.490;13.434;2023-06-14T03:23:01;16.90;99.90
20479;DHT22;10398;52.490;13.434;2023-06-14T03:25:28;16.90;99.90
20479;DHT22;10398;52.490;13.434;2023-06-14T03:27:57;16.80;99.90
20479;DHT22;10398;52.490;13.434;2023-06-14T03:30:22;16.80;99.90
20479;DHT22;10398;52.490;13.434;2023-06-14T03:32:48;16.80;99.90
20479;DHT22;10398;52.490;13.434;2023-06-14T03:35:14;16.80;99.90
20479;DHT22;10398;52.490;13.434;2023-06-14T03:37:43;16.80;99.90
20479;DHT22;10398;52.490;13.434;2023-06-14T03:40:09;16.70;99.90
20479;DHT22;10398;52.490;13.434;2023-06-14T03:42:34;16.70;99.90
20479;DHT22;10398;52.490;13.434;2023-06-14T03:45:00;16.60;99.90
20479;DHT22;10398;52.490;13.434;2023-06-14T03:47:25;16.50;99.90
20479;DHT22;10398;52.490;13.434;2023-06-14T03:49:52;16.50;99.90
20479;DHT22;10398;52.490;13.434;2023-06-14T03:52:18;16.50;99.90
20479;DHT22;10398;52.490;13.434;2023-06-14T03:54:43;16.50;99.90
20479;DHT22;10398;52.490;13.434;2023-06-14T03:57:09;16.40;99.90
20479;DHT22;10398;52.490;13.434;2023-06-14T03:59:35;16.40;99.90
20479;DHT22;10398;52.490;13.434;2023-06-14T04:02:02;16.30;99.90
20479;DHT22;10398;52.490;13.434;2023-06-14T04:04:28;16.20;99.90
20479;DHT22;10398;52.490;13.434;2023-06-14T04:06:55;16.20;99.90
20479;DHT22;10398;52.490;13.434;2023-06-14T04:09:22;16.20;99.90
20479;DHT22;10398;52.490;13.434;2023-06-14T04:11:48;16.40;99.90
20479;DHT22;10398;52.490;13.434;2023-06-14T04:14:13;16.50;99.90
20479;DHT22;10398;52.490;13.434;2023-06-14T04:16:39;16.60;99.90
20479;DHT22;10398;52.490;13.434;2023-06-14T04:19:04;16.60;99.90
20479;DHT22;10398;52.490;13.434;2023-06-14T04:21:30;16.70;99.90
20479;DHT22;10398;52.490;13.434;2023-06-14T04:23:56;16.60;99.90
20479;DHT22;10398;52.490;13.434;2023-06-14T04:26:22;16.70;99.90
20479;DHT22;10398;52.490;13.434;2023-06-14T04:28:49;16.80;99.90
20479;DHT22;10398;52.490;13.434;2023-06-14T04:31:16;16.80;99.90
20479;DHT22;10398;52.490;13.434;2023-06-14T04:33:42;16.80;99.90
20479;DHT22;10398;52.490;13.434;2023-06-14T04:36:12;16.90;99.90
20479;DHT22;10398;52.490;13.434;2023-06-14T04:38:39;17.00;99.90
20479;DHT22;10398;52.490;13.434;2023-06-14T04:41:04;17.00;99.90
20479;DHT22;10398;52.490;13.434;2023-06-14T04:43:31;17.10;99.90
20479;DHT22;10398;52.490;13.434;2023-06-14T04:46:04;17.10;99.90
20479;DHT22;10398;52.490;13.434;2023-06-14T04:48:31;17.10;99.90
20479;DHT22;10398;52.490;13.434;2023-06-14T04:50:57;17.20;99.90
20479;DHT22;10398;52.490;13.434;2023-06-14T04:53:22;17.20;99.90
20479;DHT22;10398;52.490;13.434;2023-06-14T04:55:48;17.20;99.90
20479;DHT22;10398;52.490;13.434;2023-06-14T04:58:16;17.20;99.90
20479;DHT22;10398;52.490;13.434;2023-06-14T05:00:41;17.20;99.90
20479;DHT22;10398;52.490;13.434;2023-06-14T05:03:09;17.20;99.90
20479;DHT22;10398;52.490;13.434;2023-06-14T05:05:34;17.20;99.90
20479;DHT22;10398;52.490;13.434;2023-06-14T05:08:00;17.20;99.90
20479;DHT22;10398;52.490;13.434;2023-06-14T05:10:26;17.40;99.90
20479;DHT22;10398;52.490;13.434;2023-06-14T05:12:51;17.40;99.90
20479;DHT22;10398;52.490;13.434;2023-06-14T05:15:18;17.50;99.90
20479;DHT22;10398;52.490;13.434;2023-06-14T05:17:45;17.60;99.90
20479;DHT22;10398;52.490;13.434;2023-06-14T05:20:15;17.50;99.90
20479;DHT22;10398;52.490;13.434;2023-06-14T05:22:41;17.50;99.90
20479;DHT22;10398;52.490;13.434;2023-06-14T05:25:08;17.50;99.90
20479;DHT22;10398;52.490;13.434;2023-06-14T05:27:33;17.50;99.90
20479;DHT22;10398;52.490;13.434;2023-06-14T05:30:01;17.50;99.90
20479;DHT22;10398;52.490;13.434;2023-06-14T05:32:26;17.60;99.90
20479;DHT22;10398;52.490;13.434;2023-06-14T05:34:52;17.70;99.90
20479;DHT22;10398;52.490;13.434;2023-06-14T05:37:17;17.70;99.90
20479;DHT22;10398;52.490;13.434;2023-06-14T05:39:43;17.90;99.90
20479;DHT22;10398;52.490;13.434;2023-06-14T05:42:09;17.90;99.90
20479;DHT22;10398;52.490;13.434;2023-06-14T05:44:35;18.00;99.90
20479;DHT22;10398;52.490;13.434;2023-06-14T05:47:00;18.20;99.90
20479;DHT22;10398;52.490;13.434;2023-06-14T05:49:26;18.20;99.90
20479;DHT22;10398;52.490;13.434;2023-06-14T05:51:51;18.20;99.90
20479;DHT22;10398;52.490;13.434;2023-06-14T05:54:17;18.30;99.90
20479;DHT22;10398;52.490;13.434;2023-06-14T05:56:42;18.30;99.90
20479;DHT22;10398;52.490;13.434;2023-06-14T05:59:08;18.20;99.90
20479;DHT22;10398;52.490;13.434;2023-06-14T06:01:34;18.30;99.90
20479;DHT22;10398;52.490;13.434;2023-06-14T06:04:02;18.30;99.90
20479;DHT22;10398;52.490;13.434;2023-06-14T06:06:28;18.20;99.90
20479;DHT22;10398;52.490;13.434;2023-06-14T06:08:54;18.20;99.90
20479;DHT22;10398;52.490;13.434;2023-06-14T06:11:19;18.30;99.90
20479;DHT22;10398;52.490;13.434;2023-06-14T06:13:45;18.30;99.90
20479;DHT22;10398;52.490;13.434;2023-06-14T06:16:11;18.30;99.90
20479;DHT22;10398;52.490;13.434;2023-06-14T06:18:36;18.40;99.90
20479;DHT22;10398;52.490;13.434;2023-06-14T06:21:04;18.50;99.90
20479;DHT22;10398;52.490;13.434;2023-06-14T06:23:29;18.50;99.90
20479;DHT22;10398;52.490;13.434;2023-06-14T06:25:55;18.50;99.90
20479;DHT22;10398;52.490;13.434;2023-06-14T06:28:20;18.60;99.90
20479;DHT22;10398;52.490;13.434;2023-06-14T06:30:46;18.70;99.90
20479;DHT22;10398;52.490;13.434;2023-06-14T06:33:12;18.70;99.90
20479;DHT22;10398;52.490;13.434;2023-06-14T06:35:38;18.60;99.90
20479;DHT22;10398;52.490;13.434;2023-06-14T06:38:04;18.50;99.90
20479;DHT22;10398;52.490;13.434;2023-06-14T06:40:29;18.40;99.90
20479;DHT22;10398;52.490;13.434;2023-06-14T06:42:55;18.60;99.90
20479;DHT22;10398;52.490;13.434;2023-06-14T06:45:21;18.70;99.90
20479;DHT22;10398;52.490;13.434;2023-06-14T06:47:48;18.70;99.90
20479;DHT22;10398;52.490;13.434;2023-06-14T06:50:14;18.70;99.90
20479;DHT22;10398;52.490;13.434;2023-06-14T06:52:40;18.80;99.90
20479;DHT22;10398;52.490;13.434;2023-06-14T06:55:06;18.80;99.90
20479;DHT22;10398;52.490;13.434;2023-06-14T06:57:32;18.80;99.90
20479;DHT22;10398;52.490;13.434;2023-06-14T06:59:58;18.90;99.90
20479;DHT22;10398;52.490;13.434;2023-06-14T07:02:23;18.90;99.90
20479;DHT22;10398;52.490;13.434;2023-06-14T07:04:49;18.90;99.90
20479;DHT22;10398;52.490;13.434;2023-06-14T07:07:14;18.90;99.90
20479;DHT22;10398;52.490;13.434;2023-06-14T07:09:40;19.00;99.90
20479;DHT22;10398;52.490;13.434;2023-06-14T07:12:07;19.10;99.90
20479;DHT22;10398;52.490;13.434;2023-06-14T07:14:33;19.20;99.90
20479;DHT22;10398;52.490;13.434;2023-06-14T07:16:59;19.40;99.90
20479;DHT22;10398;52.490;13.434;2023-06-14T07:19:24;19.40;99.90
20479;DHT22;10398;52.490;13.434;2023-06-14T07:21:50;19.40;99.90
20479;DHT22;10398;52.490;13.434;2023-06-14T07:24:15;19.60;99.90
20479;DHT22;10398;52.490;13.434;2023-06-14T07:26:41;19.70;99.90
20479;DHT22;10398;52.490;13.434;2023-06-14T07:29:07;19.80;99.90
20479;DHT22;10398;52.490;13.434;2023-06-14T07:31:32;19.80;99.90
20479;DHT22;10398;52.490;13.434;2023-06-14T07:33:58;19.80;99.90
20479;DHT22;10398;52.490;13.434;2023-06-14T07:36:23;19.90;99.90
20479;DHT22;10398;52.490;13.434;2023-06-14T07:38:49;19.90;99.90
20479;DHT22;10398;52.490;13.434;2023-06-14T07:41:15;20.10;99.90
20479;DHT22;10398;52.490;13.434;2023-06-14T07:43:41;20.40;99.90
20479;DHT22;10398;52.490;13.434;2023-06-14T07:46:06;20.30;99.90
20479;DHT22;10398;52.490;13.434;2023-06-14T07:48:33;20.30;99.90
20479;DHT22;10398;52.490;13.434;2023-06-14T07:50:59;20.30;99.90
20479;DHT22;10398;52.490;13.434;2023-06-14T07:53:26;20.20;99.90
20479;DHT22;10398;52.490;13.434;2023-06-14T07:55:53;20.20;99.90
20479;DHT22;10398;52.490;13.434;2023-06-14T07:58:18;20.20;99.90
20479;DHT22;10398;52.490;13.434;2023-06-14T08:00:44;20.20;99.90
20479;DHT22;10398;52.490;13.434;2023-06-14T08:03:11;20.20;99.90
20479;DHT22;10398;52.490;13.434;2023-06-14T08:05:37;20.20;99.90
20479;DHT22;10398;52.490;13.434;2023-06-14T08:08:02;20.20;99.90
20479;DHT22;10398;52.490;13.434;2023-06-14T08:10:28;20.20;99.90
20479;DHT22;10398;52.490;13.434;2023-06-14T08:12:54;20.20;99.90
20479;DHT22;10398;52.490;13.434;2023-06-14T08:15:19;20.30;99.90
20479;DHT22;10398;52.490;13.434;2023-06-14T08:17:45;20.30;99.90
20479;DHT22;10398;52.490;13.434;2023-06-14T08:20:12;20.40;99.90
20479;DHT22;10398;52.490;13.434;2023-06-14T08:22:39;20.40;99.90
20479;DHT22;10398;52.490;13.434;2023-06-14T08:25:08;20.50;99.90
20479;DHT22;10398;52.490;13.434;2023-06-14T08:27:34;20.60;99.90
20479;DHT22;10398;52.490;13.434;2023-06-14T08:30:00;20.70;99.90
20479;DHT22;10398;52.490;13.434;2023-06-14T08:32:26;20.70;99.90
20479;DHT22;10398;52.490;13.434;2023-06-14T08:34:51;20.90;99.70
20479;DHT22;10398;52.490;13.434;2023-06-14T08:37:17;20.90;99.80
20479;DHT22;10398;52.490;13.434;2023-06-14T08:39:43;20.90;99.90
20479;DHT22;10398;52.490;13.434;2023-06-14T08:42:09;21.00;99.70
20479;DHT22;10398;52.490;13.434;2023-06-14T08:44:36;21.00;99.20
20479;DHT22;10398;52.490;13.434;2023-06-14T08:47:02;20.90;98.90
20479;DHT22;10398;52.490;13.434;2023-06-14T08:49:29;20.90;99.10
20479;DHT22;10398;52.490;13.434;2023-06-14T08:52:00;21.00;99.20
20479;DHT22;10398;52.490;13.434;2023-06-14T08:54:29;21.10;99.00
20479;DHT22;10398;52.490;13.434;2023-06-14T08:56:59;21.10;98.70
20479;DHT22;10398;52.490;13.434;2023-06-14T08:59:28;21.10;98.50
20479;DHT22;10398;52.490;13.434;2023-06-14T09:01:54;21.20;98.40
20479;DHT22;10398;52.490;13.434;2023-06-14T09:04:21;21.30;98.30
20479;DHT22;10398;52.490;13.434;2023-06-14T09:06:55;21.20;97.90
20479;DHT22;10398;52.490;13.434;2023-06-14T09:09:21;21.30;97.80
20479;DHT22;10398;52.490;13.434;2023-06-14T09:11:49;21.20;98.20
20479;DHT22;10398;52.490;13.434;2023-06-14T09:14:15;21.30;97.90
20479;DHT22;10398;52.490;13.434;2023-06-14T09:16:41;21.30;98.00
20479;DHT22;10398;52.490;13.434;2023-06-14T09:19:06;21.20;98.10
20479;DHT22;10398;52.490;13.434;2023-06-14T09:21:34;21.20;98.20
20479;DHT22;10398;52.490;13.434;2023-06-14T09:24:01;21.20;97.80
20479;DHT22;10398;52.490;13.434;2023-06-14T09:26:28;21.30;97.90
20479;DHT22;10398;52.490;13.434;2023-06-14T09:28:53;21.30;97.10
20479;DHT22;10398;52.490;13.434;2023-06-14T09:31:21;21.30;97.10
20479;DHT22;10398;52.490;13.434;2023-06-14T09:33:49;21.20;97.00
20479;DHT22;10398;52.490;13.434;2023-06-14T09:36:33;21.30;97.00
20479;DHT22;10398;52.490;13.434;2023-06-14T09:39:01;21.20;97.00
20479;DHT22;10398;52.490;13.434;2023-06-14T09:41:37;21.20;97.10
20479;DHT22;10398;52.490;13.434;2023-06-14T09:44:05;21.20;96.70
20479;DHT22;10398;52.490;13.434;2023-06-14T09:46:32;21.20;96.70
20479;DHT22;10398;52.490;13.434;2023-06-14T09:48:59;21.20;96.80
20479;DHT22;10398;52.490;13.434;2023-06-14T09:51:25;21.20;97.10
20479;DHT22;10398;52.490;13.434;2023-06-14T09:53:52;21.30;97.20
20479;DHT22;10398;52.490;13.434;2023-06-14T09:56:28;21.30;97.20
20479;DHT22;10398;52.490;13.434;2023-06-14T09:58:57;21.40;96.80
20479;DHT22;10398;52.490;13.434;2023-06-14T10:01:25;21.40;96.50
20479;DHT22;10398;52.490;13.434;2023-06-14T10:03:55;21.40;96.40
20479;DHT22;10398;52.490;13.434;2023-06-14T10:06:21;21.40;96.40
20479;DHT22;10398;52.490;13.434;2023-06-14T10:08:52;21.40;96.30
20479;DHT22;10398;52.490;13.434;2023-06-14T10:11:18;21.40;96.40
20479;DHT22;10398;52.490;13.434;2023-06-14T10:13:44;21.40;96.70
20479;DHT22;10398;52.490;13.434;2023-06-14T10:16:17;21.50;96.60
20479;DHT22;10398;52.490;13.434;2023-06-14T10:19:07;21.40;96.50
20479;DHT22;10398;52.490;13.434;2023-06-14T10:21:55;21.60;96.90
20479;DHT22;10398;52.490;13.434;2023-06-14T10:24:36;21.60;96.50
20479;DHT22;10398;52.490;13.434;2023-06-14T10:27:06;21.70;96.20
20479;DHT22;10398;52.490;13.434;2023-06-14T10:32:27;21.70;96.30
20479;DHT22;10398;52.490;13.434;2023-06-14T10:34:57;21.80;95.90
20479;DHT22;10398;52.490;13.434;2023-06-14T10:37:23;21.80;96.30
20479;DHT22;10398;52.490;13.434;2023-06-14T10:39:50;21.80;96.00
20479;DHT22;10398;52.490;13.434;2023-06-14T10:42:16;21.90;95.80
20479;DHT22;10398;52.490;13.434;2023-06-14T10:44:44;21.90;95.70
20479;DHT22;10398;52.490;13.434;2023-06-14T10:47:21;21.90;95.40
20479;DHT22;10398;52.490;13.434;2023-06-14T10:49:51;21.90;95.60
20479;DHT22;10398;52.490;13.434;2023-06-14T10:52:22;21.90;95.80
20479;DHT22;10398;52.490;13.434;2023-06-14T10:57:25;22.00;97.30
20479;DHT22;10398;52.490;13.434;2023-06-14T10:59:51;21.90;95.30
20479;DHT22;10398;52.490;13.434;2023-06-14T11:04:49;21.90;98.20
20479;DHT22;10398;52.490;13.434;2023-06-14T11:10:43;22.00;96.10
20479;DHT22;10398;52.490;13.434;2023-06-14T11:13:11;22.00;96.20
20479;DHT22;10398;52.490;13.434;2023-06-14T11:15:38;22.10;96.70
20479;DHT22;10398;52.490;13.434;2023-06-14T11:18:08;22.10;95.70
20479;DHT22;10398;52.490;13.434;2023-06-14T11:20:36;22.20;95.40
20479;DHT22;10398;52.490;13.434;2023-06-14T11:23:03;22.20;95.20
20479;DHT22;10398;52.490;13.434;2023-06-14T11:25:29;22.30;95.80
20479;DHT22;10398;52.490;13.434;2023-06-14T11:27:55;22.30;95.00
20479;DHT22;10398;52.490;13.434;2023-06-14T11:30:21;22.30;94.40
20479;DHT22;10398;52.490;13.434;2023-06-14T11:32:51;22.40;94.70
20479;DHT22;10398;52.490;13.434;2023-06-14T11:35:18;22.40;94.80
20479;DHT22;10398;52.490;13.434;2023-06-14T11:37:44;22.50;94.60
20479;DHT22;10398;52.490;13.434;2023-06-14T11:40:11;22.50;93.90
20479;DHT22;10398;52.490;13.434;2023-06-14T11:42:39;22.50;94.70
20479;DHT22;10398;52.490;13.434;2023-06-14T11:45:09;22.50;93.70
20479;DHT22;10398;52.490;13.434;2023-06-14T11:47:36;22.50;94.20
20479;DHT22;10398;52.490;13.434;2023-06-14T11:50:06;22.50;93.80
20479;DHT22;10398;52.490;13.434;2023-06-14T11:52:33;22.50;93.30
20479;DHT22;10398;52.490;13.434;2023-06-14T11:54:58;22.50;94.20
20479;DHT22;10398;52.490;13.434;2023-06-14T11:57:24;22.50;93.60
20479;DHT22;10398;52.490;13.434;2023-06-14T11:59:51;22.50;94.10
20479;DHT22;10398;52.490;13.434;2023-06-14T12:02:17;22.60;93.80
20479;DHT22;10398;52.490;13.434;2023-06-14T12:04:43;22.70;93.50
20479;DHT22;10398;52.490;13.434;2023-06-14T12:07:13;22.70;93.50
20479;DHT22;10398;52.490;13.434;2023-06-14T12:12:23;23.00;92.70
20479;DHT22;10398;52.490;13.434;2023-06-14T12:14:54;23.20;91.80
20479;DHT22;10398;52.490;13.434;2023-06-14T12:17:20;23.30;91.30
20479;DHT22;10398;52.490;13.434;2023-06-14T12:19:46;23.50;91.00
20479;DHT22;10398;52.490;13.434;2023-06-14T12:22:16;23.50;90.90
20479;DHT22;10398;52.490;13.434;2023-06-14T12:24:45;23.50;90.30
20479;DHT22;10398;52.490;13.434;2023-06-14T12:27:12;23.50;90.20
20479;DHT22;10398;52.490;13.434;2023-06-14T12:29:44;23.60;90.40
20479;DHT22;10398;52.490;13.434;2023-06-14T12:32:10;23.70;90.00
20479;DHT22;10398;52.490;13.434;2023-06-14T12:34:36;23.70;87.60
20479;DHT22;10398;52.490;13.434;2023-06-14T12:37:02;23.80;88.70
20479;DHT22;10398;52.490;13.434;2023-06-14T12:39:29;23.90;89.40
20479;DHT22;10398;52.490;13.434;2023-06-14T12:41:57;24.00;88.20
20479;DHT22;10398;52.490;13.434;2023-06-14T12:44:23;24.20;87.80
20479;DHT22;10398;52.490;13.434;2023-06-14T12:46:49;24.20;83.70
20479;DHT22;10398;52.490;13.434;2023-06-14T12:49:16;24.30;83.50
20479;DHT22;10398;52.490;13.434;2023-06-14T12:51:42;24.40;85.00
20479;DHT22;10398;52.490;13.434;2023-06-14T12:54:08;24.60;84.50
20479;DHT22;10398;52.490;13.434;2023-06-14T12:56:34;24.60;79.10
20479;DHT22;10398;52.490;13.434;2023-06-14T12:59:00;24.60;78.30
20479;DHT22;10398;52.490;13.434;2023-06-14T13:01:26;24.60;80.30
20479;DHT22;10398;52.490;13.434;2023-06-14T13:03:51;24.70;79.30
20479;DHT22;10398;52.490;13.434;2023-06-14T13:06:21;24.80;81.00
20479;DHT22;10398;52.490;13.434;2023-06-14T13:08:48;24.90;80.50
20479;DHT22;10398;52.490;13.434;2023-06-14T13:11:14;25.00;78.70
20479;DHT22;10398;52.490;13.434;2023-06-14T13:13:40;25.00;76.10
20479;DHT22;10398;52.490;13.434;2023-06-14T13:16:05;24.90;74.30
20479;DHT22;10398;52.490;13.434;2023-06-14T13:18:31;25.00;77.80
20479;DHT22;10398;52.490;13.434;2023-06-14T13:20:57;25.00;77.50
20479;DHT22;10398;52.490;13.434;2023-06-14T13:23:22;25.00;74.70
20479;DHT22;10398;52.490;13.434;2023-06-14T13:25:48;25.00;75.50
20479;DHT22;10398;52.490;13.434;2023-06-14T13:28:16;25.00;75.60
20479;DHT22;10398;52.490;13.434;2023-06-14T13:30:42;25.10;76.40
20479;DHT22;10398;52.490;13.434;2023-06-14T13:33:08;25.00;75.00
20479;DHT22;10398;52.490;13.434;2023-06-14T13:35:34;25.00;76.20
20479;DHT22;10398;52.490;13.434;2023-06-14T13:38:00;24.90;76.00
20479;DHT22;10398;52.490;13.434;2023-06-14T13:40:25;24.80;74.40
20479;DHT22;10398;52.490;13.434;2023-06-14T13:42:51;24.80;76.30
20479;DHT22;10398;52.490;13.434;2023-06-14T13:45:17;24.90;77.60
20479;DHT22;10398;52.490;13.434;2023-06-14T13:47:43;24.90;74.40
20479;DHT22;10398;52.490;13.434;2023-06-14T13:50:09;24.80;80.90
20479;DHT22;10398;52.490;13.434;2023-06-14T13:52:34;24.80;74.80
20479;DHT22;10398;52.490;13.434;2023-06-14T13:55:00;24.80;73.80
20479;DHT22;10398;52.490;13.434;2023-06-14T13:57:26;24.70;73.40
20479;DHT22;10398;52.490;13.434;2023-06-14T13:59:52;24.70;74.60
20479;DHT22;10398;52.490;13.434;2023-06-14T14:02:20;24.50;74.10
20479;DHT22;10398;52.490;13.434;2023-06-14T14:04:46;24.40;74.50
20479;DHT22;10398;52.490;13.434;2023-06-14T14:07:18;24.30;74.90
20479;DHT22;10398;52.490;13.434;2023-06-14T14:09:44;24.40;75.40
20479;DHT22;10398;52.490;13.434;2023-06-14T14:12:10;24.40;76.70
20479;DHT22;10398;52.490;13.434;2023-06-14T14:14:37;24.40;77.50
20479;DHT22;10398;52.490;13.434;2023-06-14T14:17:02;24.50;75.40
20479;DHT22;10398;52.490;13.434;2023-06-14T14:19:29;24.40;74.50
20479;DHT22;10398;52.490;13.434;2023-06-14T14:21:55;24.30;74.50
20479;DHT22;10398;52.490;13.434;2023-06-14T14:24:20;24.20;73.80
20479;DHT22;10398;52.490;13.434;2023-06-14T14:26:46;24.20;73.90
20479;DHT22;10398;52.490;13.434;2023-06-14T14:29:16;24.20;76.00
20479;DHT22;10398;52.490;13.434;2023-06-14T14:31:42;24.20;75.00
20479;DHT22;10398;52.490;13.434;2023-06-14T14:34:08;24.30;74.40
20479;DHT22;10398;52.490;13.434;2023-06-14T14:36:33;24.40;74.10
20479;DHT22;10398;52.490;13.434;2023-06-14T14:39:05;24.50;74.00
20479;DHT22;10398;52.490;13.434;2023-06-14T14:41:32;24.60;73.70
20479;DHT22;10398;52.490;13.434;2023-06-14T14:43:58;24.60;74.90
20479;DHT22;10398;52.490;13.434;2023-06-14T14:46:24;24.70;73.40
20479;DHT22;10398;52.490;13.434;2023-06-14T14:48:50;24.70;71.60
20479;DHT22;10398;52.490;13.434;2023-06-14T14:51:16;24.60;73.00
20479;DHT22;10398;52.490;13.434;2023-06-14T14:53:41;24.60;72.90
20479;DHT22;10398;52.490;13.434;2023-06-14T14:56:07;24.50;72.80
20479;DHT22;10398;52.490;13.434;2023-06-14T14:58:36;24.40;73.80
20479;DHT22;10398;52.490;13.434;2023-06-14T15:01:01;24.40;75.60
20479;DHT22;10398;52.490;13.434;2023-06-14T15:03:27;24.30;77.20
20479;DHT22;10398;52.490;13.434;2023-06-14T15:05:53;24.30;73.70
20479;DHT22;10398;52.490;13.434;2023-06-14T15:08:20;24.20;76.20
20479;DHT22;10398;52.490;13.434;2023-06-14T15:10:45;24.10;77.00
20479;DHT22;10398;52.490;13.434;2023-06-14T15:13:12;24.10;76.10
20479;DHT22;10398;52.490;13.434;2023-06-14T15:15:38;24.00;74.90
20479;DHT22;10398;52.490;13.434;2023-06-14T15:18:04;23.90;75.30
20479;DHT22;10398;52.490;13.434;2023-06-14T15:20:29;23.90;75.10
20479;DHT22;10398;52.490;13.434;2023-06-14T15:22:55;23.70;74.80
20479;DHT22;10398;52.490;13.434;2023-06-14T15:25:28;23.70;73.90
20479;DHT22;10398;52.490;13.434;2023-06-14T15:27:55;23.60;73.60
20479;DHT22;10398;52.490;13.434;2023-06-14T15:30:21;23.50;73.90